sensor_id;sensor_type;location;lat;lon;timestamp;P1;durP1;ratioP1;P2;durP2;ratioP2
12220;SDS011;6173;42.024;23.096;2022-07-23T00:00:07;9.47;;;4.00;;
12220;SDS011;6173;42.024;23.096;2022-07-23T00:02:34;13.27;;;3.67;;
12220;SDS011;6173;42.024;23.096;2022-07-23T00:05:01;9.70;;;4.13;;
12220;SDS011;6173;42.024;23.096;2022-07-23T00:07:28;7.30;;;4.10;;
12220;SDS011;6173;42.024;23.096;2022-07-23T00:09:56;11.13;;;3.80;;
12220;SDS011;6173;42.024;23.096;2022-07-23T00:12:23;6.23;;;3.63;;
12220;SDS011;6173;42.024;23.096;2022-07-23T00:14:50;11.80;;;4.30;;
12220;SDS011;6173;42.024;23.096;2022-07-23T00:17:17;8.33;;;3.80;;
12220;SDS011;6173;42.024;23.096;2022-07-23T00:19:43;10.33;;;4.57;;
12220;SDS011;6173;42.024;23.096;2022-07-23T00:22:10;9.77;;;4.40;;
12220;SDS011;6173;42.024;23.096;2022-07-23T00:24:37;8.10;;;3.80;;
12220;SDS011;6173;42.024;23.096;2022-07-23T00:27:05;8.07;;;4.17;;
12220;SDS011;6173;42.024;23.096;2022-07-23T00:29:32;6.40;;;3.67;;
12220;SDS011;6173;42.024;23.096;2022-07-23T00:31:59;8.57;;;3.63;;
12220;SDS011;6173;42.024;23.096;2022-07-23T00:34:25;8.57;;;3.57;;
12220;SDS011;6173;42.024;23.096;2022-07-23T00:36:52;8.37;;;3.83;;
12220;SDS011;6173;42.024;23.096;2022-07-23T00:39:19;7.67;;;3.80;;
12220;SDS011;6173;42.024;23.096;2022-07-23T00:41:47;7.13;;;3.97;;
12220;SDS011;6173;42.024;23.096;2022-07-23T00:44:16;6.47;;;4.00;;
12220;SDS011;6173;42.024;23.096;2022-07-23T00:46:48;7.10;;;3.80;;
12220;SDS011;6173;42.024;23.096;2022-07-23T00:49:18;11.63;;;4.37;;
12220;SDS011;6173;42.024;23.096;2022-07-23T00:51:45;9.83;;;4.30;;
12220;SDS011;6173;42.024;23.096;2022-07-23T00:54:12;10.30;;;4.10;;
12220;SDS011;6173;42.024;23.096;2022-07-23T00:56:39;6.87;;;4.10;;
12220;SDS011;6173;42.024;23.096;2022-07-23T00:59:07;6.87;;;4.13;;
12220;SDS011;6173;42.024;23.096;2022-07-23T01:01:36;7.53;;;4.17;;
12220;SDS011;6173;42.024;23.096;2022-07-23T01:04:03;7.90;;;4.10;;
12220;SDS011;6173;42.024;23.096;2022-07-23T01:06:30;5.77;;;3.80;;
12220;SDS011;6173;42.024;23.096;2022-07-23T01:09:00;8.13;;;4.40;;
12220;SDS011;6173;42.024;23.096;2022-07-23T01:11:27;10.47;;;4.03;;
12220;SDS011;6173;42.024;23.096;2022-07-23T01:13:54;8.00;;;3.73;;
12220;SDS011;6173;42.024;23.096;2022-07-23T01:16:21;8.43;;;4.03;;
12220;SDS011;6173;42.024;23.096;2022-07-23T01:18:49;7.53;;;4.20;;
12220;SDS011;6173;42.024;23.096;2022-07-23T01:21:15;7.43;;;3.63;;
12220;SDS011;6173;42.024;23.096;2022-07-23T01:23:46;6.03;;;3.73;;
12220;SDS011;6173;42.024;23.096;2022-07-23T01:26:12;6.13;;;3.90;;
12220;SDS011;6173;42.024;23.096;2022-07-23T01:28:42;8.17;;;4.03;;
12220;SDS011;6173;42.024;23.096;2022-07-23T01:31:09;8.70;;;3.90;;
12220;SDS011;6173;42.024;23.096;2022-07-23T01:33:35;8.50;;;3.83;;
12220;SDS011;6173;42.024;23.096;2022-07-23T01:36:02;10.93;;;3.53;;
12220;SDS011;6173;42.024;23.096;2022-07-23T01:38:30;6.87;;;3.93;;
12220;SDS011;6173;42.024;23.096;2022-07-23T01:40:58;7.90;;;3.70;;
12220;SDS011;6173;42.024;23.096;2022-07-23T01:43:25;8.70;;;4.00;;
12220;SDS011;6173;42.024;23.096;2022-07-23T01:45:51;6.70;;;4.10;;
12220;SDS011;6173;42.024;23.096;2022-07-23T01:48:18;6.30;;;3.80;;
12220;SDS011;6173;42.024;23.096;2022-07-23T01:50:45;6.97;;;3.90;;
12220;SDS011;6173;42.024;23.096;2022-07-23T01:53:13;8.50;;;4.03;;
12220;SDS011;6173;42.024;23.096;2022-07-23T01:55:40;8.97;;;3.70;;
12220;SDS011;6173;42.024;23.096;2022-07-23T01:58:08;6.37;;;3.47;;
12220;SDS011;6173;42.024;23.096;2022-07-23T02:00:35;10.40;;;4.23;;
12220;SDS011;6173;42.024;23.096;2022-07-23T02:03:02;7.93;;;3.83;;
12220;SDS011;6173;42.024;23.096;2022-07-23T02:05:29;9.33;;;3.93;;
12220;SDS011;6173;42.024;23.096;2022-07-23T02:07:57;8.17;;;4.30;;
12220;SDS011;6173;42.024;23.096;2022-07-23T02:10:24;8.23;;;3.90;;
12220;SDS011;6173;42.024;23.096;2022-07-23T02:12:50;9.13;;;4.13;;
12220;SDS011;6173;42.024;23.096;2022-07-23T02:15:19;8.57;;;3.90;;
12220;SDS011;6173;42.024;23.096;2022-07-23T02:17:45;7.13;;;3.40;;
12220;SDS011;6173;42.024;23.096;2022-07-23T02:20:12;6.20;;;4.10;;
12220;SDS011;6173;42.024;23.096;2022-07-23T02:22:39;9.70;;;4.13;;
12220;SDS011;6173;42.024;23.096;2022-07-23T02:25:07;8.70;;;3.87;;
12220;SDS011;6173;42.024;23.096;2022-07-23T02:27:34;7.87;;;4.37;;
12220;SDS011;6173;42.024;23.096;2022-07-23T02:30:01;6.80;;;3.90;;
12220;SDS011;6173;42.024;23.096;2022-07-23T02:32:30;6.40;;;3.17;;
12220;SDS011;6173;42.024;23.096;2022-07-23T02:34:56;5.37;;;3.80;;
12220;SDS011;6173;42.024;23.096;2022-07-23T02:37:23;10.63;;;4.50;;
12220;SDS011;6173;42.024;23.096;2022-07-23T02:39:50;11.17;;;4.20;;
12220;SDS011;6173;42.024;23.096;2022-07-23T02:42:17;10.70;;;4.43;;
12220;SDS011;6173;42.024;23.096;2022-07-23T02:44:43;8.60;;;4.07;;
12220;SDS011;6173;42.024;23.096;2022-07-23T02:47:10;9.57;;;3.80;;
12220;SDS011;6173;42.024;23.096;2022-07-23T02:49:38;8.10;;;4.03;;
12220;SDS011;6173;42.024;23.096;2022-07-23T02:52:05;9.17;;;4.20;;
12220;SDS011;6173;42.024;23.096;2022-07-23T02:54:32;16.57;;;4.90;;
12220;SDS011;6173;42.024;23.096;2022-07-23T02:56:58;7.90;;;4.93;;
12220;SDS011;6173;42.024;23.096;2022-07-23T02:59:25;6.97;;;3.80;;
12220;SDS011;6173;42.024;23.096;2022-07-23T03:01:52;7.73;;;3.90;;
12220;SDS011;6173;42.024;23.096;2022-07-23T03:04:19;8.37;;;3.93;;
12220;SDS011;6173;42.024;23.096;2022-07-23T03:06:47;7.47;;;4.10;;
12220;SDS011;6173;42.024;23.096;2022-07-23T03:09:14;7.37;;;4.27;;
12220;SDS011;6173;42.024;23.096;2022-07-23T03:11:41;9.43;;;4.47;;
12220;SDS011;6173;42.024;23.096;2022-07-23T03:14:07;7.40;;;4.00;;
12220;SDS011;6173;42.024;23.096;2022-07-23T03:16:34;12.20;;;4.30;;
12220;SDS011;6173;42.024;23.096;2022-07-23T03:19:01;6.50;;;4.40;;
12220;SDS011;6173;42.024;23.096;2022-07-23T03:21:28;11.67;;;3.83;;
12220;SDS011;6173;42.024;23.096;2022-07-23T03:23:56;10.93;;;4.07;;
12220;SDS011;6173;42.024;23.096;2022-07-23T03:26:22;7.70;;;3.80;;
12220;SDS011;6173;42.024;23.096;2022-07-23T03:28:50;9.17;;;4.97;;
12220;SDS011;6173;42.024;23.096;2022-07-23T03:31:17;7.10;;;4.07;;
12220;SDS011;6173;42.024;23.096;2022-07-23T03:33:44;5.87;;;4.07;;
12220;SDS011;6173;42.024;23.096;2022-07-23T03:36:10;8.10;;;4.07;;
12220;SDS011;6173;42.024;23.096;2022-07-23T03:38:37;12.67;;;4.60;;
12220;SDS011;6173;42.024;23.096;2022-07-23T03:41:05;5.97;;;4.10;;
12220;SDS011;6173;42.024;23.096;2022-07-23T03:43:32;10.43;;;4.40;;
12220;SDS011;6173;42.024;23.096;2022-07-23T03:45:59;6.20;;;3.83;;
12220;SDS011;6173;42.024;23.096;2022-07-23T03:48:26;11.43;;;4.23;;
12220;SDS011;6173;42.024;23.096;2022-07-23T03:50:54;8.10;;;4.07;;
12220;SDS011;6173;42.024;23.096;2022-07-23T03:53:20;6.77;;;4.30;;
12220;SDS011;6173;42.024;23.096;2022-07-23T03:55:47;7.40;;;4.27;;
12220;SDS011;6173;42.024;23.096;2022-07-23T03:58:15;9.93;;;4.30;;
12220;SDS011;6173;42.024;23.096;2022-07-23T04:00:42;7.23;;;4.03;;
12220;SDS011;6173;42.024;23.096;2022-07-23T04:03:09;7.63;;;4.37;;
12220;SDS011;6173;42.024;23.096;2022-07-23T04:05:36;9.00;;;4.17;;
12220;SDS011;6173;42.024;23.096;2022-07-23T04:08:03;10.77;;;4.47;;
12220;SDS011;6173;42.024;23.096;2022-07-23T04:10:30;8.83;;;4.43;;
12220;SDS011;6173;42.024;23.096;2022-07-23T04:12:56;11.13;;;4.50;;
12220;SDS011;6173;42.024;23.096;2022-07-23T04:15:24;10.10;;;4.23;;
12220;SDS011;6173;42.024;23.096;2022-07-23T04:17:51;7.33;;;4.87;;
12220;SDS011;6173;42.024;23.096;2022-07-23T04:20:18;28.70;;;4.97;;
12220;SDS011;6173;42.024;23.096;2022-07-23T04:22:45;8.43;;;4.00;;
12220;SDS011;6173;42.024;23.096;2022-07-23T04:25:12;7.37;;;4.63;;
12220;SDS011;6173;42.024;23.096;2022-07-23T04:27:41;28.60;;;5.67;;
12220;SDS011;6173;42.024;23.096;2022-07-23T04:30:08;26.33;;;5.40;;
12220;SDS011;6173;42.024;23.096;2022-07-23T04:32:36;12.10;;;4.60;;
12220;SDS011;6173;42.024;23.096;2022-07-23T04:35:03;9.93;;;4.80;;
12220;SDS011;6173;42.024;23.096;2022-07-23T04:37:31;8.73;;;4.80;;
12220;SDS011;6173;42.024;23.096;2022-07-23T04:39:57;7.83;;;4.40;;
12220;SDS011;6173;42.024;23.096;2022-07-23T04:42:24;9.10;;;4.23;;
12220;SDS011;6173;42.024;23.096;2022-07-23T04:44:51;13.73;;;5.13;;
12220;SDS011;6173;42.024;23.096;2022-07-23T04:47:18;9.73;;;4.73;;
12220;SDS011;6173;42.024;23.096;2022-07-23T04:49:46;10.47;;;4.30;;
12220;SDS011;6173;42.024;23.096;2022-07-23T04:52:12;9.80;;;4.80;;
12220;SDS011;6173;42.024;23.096;2022-07-23T04:54:40;5.83;;;4.43;;
12220;SDS011;6173;42.024;23.096;2022-07-23T04:57:07;9.47;;;4.83;;
12220;SDS011;6173;42.024;23.096;2022-07-23T04:59:33;7.00;;;5.10;;
12220;SDS011;6173;42.024;23.096;2022-07-23T05:02:02;35.50;;;6.30;;
12220;SDS011;6173;42.024;23.096;2022-07-23T05:04:29;23.33;;;6.57;;
12220;SDS011;6173;42.024;23.096;2022-07-23T05:06:58;28.77;;;6.80;;
12220;SDS011;6173;42.024;23.096;2022-07-23T05:09:25;13.80;;;5.10;;
12220;SDS011;6173;42.024;23.096;2022-07-23T05:11:52;12.53;;;5.50;;
12220;SDS011;6173;42.024;23.096;2022-07-23T05:14:18;11.53;;;5.00;;
12220;SDS011;6173;42.024;23.096;2022-07-23T05:16:45;13.00;;;5.27;;
12220;SDS011;6173;42.024;23.096;2022-07-23T05:19:12;11.40;;;4.47;;
12220;SDS011;6173;42.024;23.096;2022-07-23T05:21:39;12.63;;;5.00;;
12220;SDS011;6173;42.024;23.096;2022-07-23T05:24:07;9.17;;;5.20;;
12220;SDS011;6173;42.024;23.096;2022-07-23T05:26:34;8.30;;;4.80;;
12220;SDS011;6173;42.024;23.096;2022-07-23T05:29:03;11.10;;;5.43;;
12220;SDS011;6173;42.024;23.096;2022-07-23T05:31:30;10.37;;;4.60;;
12220;SDS011;6173;42.024;23.096;2022-07-23T05:33:57;10.33;;;5.30;;
12220;SDS011;6173;42.024;23.096;2022-07-23T05:36:24;14.00;;;5.70;;
12220;SDS011;6173;42.024;23.096;2022-07-23T05:38:51;14.57;;;6.23;;
12220;SDS011;6173;42.024;23.096;2022-07-23T05:41:19;8.00;;;5.23;;
12220;SDS011;6173;42.024;23.096;2022-07-23T05:43:46;13.63;;;5.53;;
12220;SDS011;6173;42.024;23.096;2022-07-23T05:46:13;10.37;;;5.70;;
12220;SDS011;6173;42.024;23.096;2022-07-23T05:48:39;13.77;;;5.43;;
12220;SDS011;6173;42.024;23.096;2022-07-23T05:51:07;20.50;;;6.67;;
12220;SDS011;6173;42.024;23.096;2022-07-23T05:53:34;20.47;;;6.47;;
12220;SDS011;6173;42.024;23.096;2022-07-23T05:56:01;14.93;;;6.00;;
12220;SDS011;6173;42.024;23.096;2022-07-23T05:58:29;10.33;;;5.50;;
12220;SDS011;6173;42.024;23.096;2022-07-23T06:00:56;9.37;;;5.87;;
12220;SDS011;6173;42.024;23.096;2022-07-23T06:03:24;14.40;;;5.67;;
12220;SDS011;6173;42.024;23.096;2022-07-23T06:05:51;9.97;;;5.97;;
12220;SDS011;6173;42.024;23.096;2022-07-23T06:08:17;14.97;;;6.00;;
12220;SDS011;6173;42.024;23.096;2022-07-23T06:10:44;14.33;;;5.80;;
12220;SDS011;6173;42.024;23.096;2022-07-23T06:13:11;14.63;;;6.23;;
12220;SDS011;6173;42.024;23.096;2022-07-23T06:15:39;9.53;;;5.27;;
12220;SDS011;6173;42.024;23.096;2022-07-23T06:18:06;14.30;;;5.23;;
12220;SDS011;6173;42.024;23.096;2022-07-23T06:20:32;15.63;;;6.30;;
12220;SDS011;6173;42.024;23.096;2022-07-23T06:22:59;11.23;;;6.13;;
12220;SDS011;6173;42.024;23.096;2022-07-23T06:25:26;12.07;;;6.27;;
12220;SDS011;6173;42.024;23.096;2022-07-23T06:27:53;14.63;;;6.57;;
12220;SDS011;6173;42.024;23.096;2022-07-23T06:30:20;11.93;;;6.40;;
12220;SDS011;6173;42.024;23.096;2022-07-23T06:32:48;15.60;;;5.80;;
12220;SDS011;6173;42.024;23.096;2022-07-23T06:35:16;11.07;;;5.00;;
12220;SDS011;6173;42.024;23.096;2022-07-23T06:37:42;8.30;;;5.50;;
12220;SDS011;6173;42.024;23.096;2022-07-23T06:40:10;18.80;;;5.63;;
12220;SDS011;6173;42.024;23.096;2022-07-23T06:42:38;12.83;;;5.70;;
12220;SDS011;6173;42.024;23.096;2022-07-23T06:45:05;12.30;;;5.90;;
12220;SDS011;6173;42.024;23.096;2022-07-23T06:47:33;17.43;;;6.37;;
12220;SDS011;6173;42.024;23.096;2022-07-23T06:50:01;9.20;;;5.87;;
12220;SDS011;6173;42.024;23.096;2022-07-23T06:52:28;10.80;;;6.03;;
12220;SDS011;6173;42.024;23.096;2022-07-23T06:54:55;49.00;;;7.93;;
12220;SDS011;6173;42.024;23.096;2022-07-23T06:57:21;7.20;;;5.40;;
12220;SDS011;6173;42.024;23.096;2022-07-23T06:59:50;13.10;;;5.57;;
12220;SDS011;6173;42.024;23.096;2022-07-23T07:02:17;11.67;;;5.87;;
12220;SDS011;6173;42.024;23.096;2022-07-23T07:04:44;8.77;;;6.07;;
12220;SDS011;6173;42.024;23.096;2022-07-23T07:07:12;7.23;;;4.77;;
12220;SDS011;6173;42.024;23.096;2022-07-23T07:09:39;7.70;;;4.73;;
12220;SDS011;6173;42.024;23.096;2022-07-23T07:12:06;11.50;;;5.00;;
12220;SDS011;6173;42.024;23.096;2022-07-23T07:14:33;12.60;;;5.03;;
12220;SDS011;6173;42.024;23.096;2022-07-23T07:17:00;10.20;;;4.80;;
12220;SDS011;6173;42.024;23.096;2022-07-23T07:19:27;12.93;;;5.37;;
12220;SDS011;6173;42.024;23.096;2022-07-23T07:21:54;7.33;;;4.70;;
12220;SDS011;6173;42.024;23.096;2022-07-23T07:24:22;12.27;;;5.10;;
12220;SDS011;6173;42.024;23.096;2022-07-23T07:26:48;11.60;;;5.17;;
12220;SDS011;6173;42.024;23.096;2022-07-23T07:29:15;19.90;;;5.20;;
12220;SDS011;6173;42.024;23.096;2022-07-23T07:31:42;12.60;;;4.70;;
12220;SDS011;6173;42.024;23.096;2022-07-23T07:34:09;9.70;;;4.70;;
12220;SDS011;6173;42.024;23.096;2022-07-23T07:36:36;15.23;;;5.27;;
12220;SDS011;6173;42.024;23.096;2022-07-23T07:39:03;12.30;;;5.00;;
12220;SDS011;6173;42.024;23.096;2022-07-23T07:41:31;8.10;;;5.13;;
12220;SDS011;6173;42.024;23.096;2022-07-23T07:43:58;28.50;;;5.20;;
12220;SDS011;6173;42.024;23.096;2022-07-23T07:46:25;10.13;;;4.87;;
12220;SDS011;6173;42.024;23.096;2022-07-23T07:48:52;16.53;;;4.90;;
12220;SDS011;6173;42.024;23.096;2022-07-23T07:51:19;10.97;;;4.93;;
12220;SDS011;6173;42.024;23.096;2022-07-23T07:53:46;15.77;;;4.77;;
12220;SDS011;6173;42.024;23.096;2022-07-23T07:56:12;10.27;;;5.00;;
12220;SDS011;6173;42.024;23.096;2022-07-23T07:58:41;7.50;;;5.03;;
12220;SDS011;6173;42.024;23.096;2022-07-23T08:01:08;9.37;;;4.77;;
12220;SDS011;6173;42.024;23.096;2022-07-23T08:03:34;11.77;;;5.40;;
12220;SDS011;6173;42.024;23.096;2022-07-23T08:06:01;11.97;;;5.03;;
12220;SDS011;6173;42.024;23.096;2022-07-23T08:08:28;14.77;;;4.90;;
12220;SDS011;6173;42.024;23.096;2022-07-23T08:10:54;9.10;;;5.00;;
12220;SDS011;6173;42.024;23.096;2022-07-23T08:13:21;11.27;;;5.73;;
12220;SDS011;6173;42.024;23.096;2022-07-23T08:15:49;8.40;;;5.20;;
12220;SDS011;6173;42.024;23.096;2022-07-23T08:18:18;12.90;;;5.63;;
12220;SDS011;6173;42.024;23.096;2022-07-23T08:20:45;8.37;;;5.33;;
12220;SDS011;6173;42.024;23.096;2022-07-23T08:23:11;12.20;;;4.83;;
12220;SDS011;6173;42.024;23.096;2022-07-23T08:25:39;12.17;;;5.33;;
12220;SDS011;6173;42.024;23.096;2022-07-23T08:28:08;8.50;;;5.30;;
12220;SDS011;6173;42.024;23.096;2022-07-23T08:30:37;10.93;;;5.17;;
12220;SDS011;6173;42.024;23.096;2022-07-23T08:33:06;10.20;;;4.87;;
12220;SDS011;6173;42.024;23.096;2022-07-23T08:35:36;14.60;;;5.30;;
12220;SDS011;6173;42.024;23.096;2022-07-23T08:38:05;12.57;;;5.23;;
12220;SDS011;6173;42.024;23.096;2022-07-23T08:40:34;13.47;;;4.83;;
12220;SDS011;6173;42.024;23.096;2022-07-23T08:43:03;7.90;;;4.80;;
12220;SDS011;6173;42.024;23.096;2022-07-23T08:45:32;11.77;;;5.20;;
12220;SDS011;6173;42.024;23.096;2022-07-23T08:48:02;14.33;;;5.43;;
12220;SDS011;6173;42.024;23.096;2022-07-23T08:50:32;19.53;;;5.70;;
12220;SDS011;6173;42.024;23.096;2022-07-23T08:53:04;9.83;;;5.33;;
12220;SDS011;6173;42.024;23.096;2022-07-23T08:55:33;9.90;;;5.73;;
12220;SDS011;6173;42.024;23.096;2022-07-23T08:58:00;12.23;;;4.70;;
12220;SDS011;6173;42.024;23.096;2022-07-23T09:00:27;15.10;;;5.20;;
12220;SDS011;6173;42.024;23.096;2022-07-23T09:02:55;14.20;;;4.80;;
12220;SDS011;6173;42.024;23.096;2022-07-23T09:05:21;10.30;;;5.30;;
12220;SDS011;6173;42.024;23.096;2022-07-23T09:08:09;15.77;;;5.40;;
12220;SDS011;6173;42.024;23.096;2022-07-23T09:10:44;8.83;;;4.90;;
12220;SDS011;6173;42.024;23.096;2022-07-23T09:13:27;9.43;;;4.73;;
12220;SDS011;6173;42.024;23.096;2022-07-23T09:16:06;7.33;;;4.70;;
12220;SDS011;6173;42.024;23.096;2022-07-23T09:18:44;13.53;;;4.90;;
12220;SDS011;6173;42.024;23.096;2022-07-23T09:21:17;8.23;;;4.87;;
12220;SDS011;6173;42.024;23.096;2022-07-23T09:23:52;11.13;;;4.50;;
12220;SDS011;6173;42.024;23.096;2022-07-23T09:26:26;16.93;;;4.97;;
12220;SDS011;6173;42.024;23.096;2022-07-23T09:29:01;12.30;;;4.57;;
12220;SDS011;6173;42.024;23.096;2022-07-23T09:31:31;7.67;;;4.50;;
12220;SDS011;6173;42.024;23.096;2022-07-23T09:36:48;10.10;;;4.20;;
12220;SDS011;6173;42.024;23.096;2022-07-23T09:39:21;6.60;;;3.90;;
12220;SDS011;6173;42.024;23.096;2022-07-23T09:41:52;10.43;;;3.33;;
12220;SDS011;6173;42.024;23.096;2022-07-23T09:44:19;7.33;;;3.97;;
12220;SDS011;6173;42.024;23.096;2022-07-23T09:46:47;10.33;;;4.33;;
12220;SDS011;6173;42.024;23.096;2022-07-23T09:49:16;10.13;;;3.77;;
12220;SDS011;6173;42.024;23.096;2022-07-23T09:51:45;18.90;;;4.33;;
12220;SDS011;6173;42.024;23.096;2022-07-23T09:54:22;16.67;;;4.63;;
12220;SDS011;6173;42.024;23.096;2022-07-23T09:56:51;8.55;;;4.60;;
12220;SDS011;6173;42.024;23.096;2022-07-23T09:59:18;8.93;;;4.43;;
12220;SDS011;6173;42.024;23.096;2022-07-23T10:01:50;10.93;;;4.30;;
12220;SDS011;6173;42.024;23.096;2022-07-23T10:04:18;8.33;;;4.40;;
12220;SDS011;6173;42.024;23.096;2022-07-23T10:06:45;6.40;;;4.63;;
12220;SDS011;6173;42.024;23.096;2022-07-23T10:09:12;8.13;;;3.90;;
12220;SDS011;6173;42.024;23.096;2022-07-23T10:11:45;12.47;;;4.10;;
12220;SDS011;6173;42.024;23.096;2022-07-23T10:14:12;9.27;;;4.27;;
12220;SDS011;6173;42.024;23.096;2022-07-23T10:16:39;11.50;;;4.37;;
12220;SDS011;6173;42.024;23.096;2022-07-23T10:19:06;12.53;;;4.27;;
12220;SDS011;6173;42.024;23.096;2022-07-23T10:21:34;6.77;;;4.20;;
12220;SDS011;6173;42.024;23.096;2022-07-23T10:24:10;6.67;;;4.27;;
12220;SDS011;6173;42.024;23.096;2022-07-23T10:26:48;8.77;;;3.87;;
12220;SDS011;6173;42.024;23.096;2022-07-23T10:29:29;9.57;;;4.20;;
12220;SDS011;6173;42.024;23.096;2022-07-23T10:32:11;11.93;;;4.43;;
12220;SDS011;6173;42.024;23.096;2022-07-23T10:34:51;11.27;;;3.70;;
12220;SDS011;6173;42.024;23.096;2022-07-23T10:37:21;6.53;;;3.60;;
12220;SDS011;6173;42.024;23.096;2022-07-23T10:40:10;16.87;;;3.90;;
12220;SDS011;6173;42.024;23.096;2022-07-23T10:42:40;9.43;;;3.70;;
12220;SDS011;6173;42.024;23.096;2022-07-23T10:45:23;11.07;;;4.07;;
12220;SDS011;6173;42.024;23.096;2022-07-23T10:48:11;9.50;;;4.30;;
12220;SDS011;6173;42.024;23.096;2022-07-23T10:50:40;14.83;;;4.10;;
12220;SDS011;6173;42.024;23.096;2022-07-23T10:53:11;13.13;;;4.23;;
12220;SDS011;6173;42.024;23.096;2022-07-23T10:55:42;17.17;;;4.57;;
12220;SDS011;6173;42.024;23.096;2022-07-23T10:58:17;14.47;;;4.37;;
12220;SDS011;6173;42.024;23.096;2022-07-23T11:00:45;13.87;;;4.57;;
12220;SDS011;6173;42.024;23.096;2022-07-23T11:03:27;19.73;;;4.57;;
12220;SDS011;6173;42.024;23.096;2022-07-23T11:06:01;9.53;;;4.30;;
12220;SDS011;6173;42.024;23.096;2022-07-23T11:08:29;8.93;;;4.13;;
12220;SDS011;6173;42.024;23.096;2022-07-23T11:11:07;13.30;;;4.10;;
12220;SDS011;6173;42.024;23.096;2022-07-23T11:13:38;8.87;;;3.97;;
12220;SDS011;6173;42.024;23.096;2022-07-23T11:16:13;12.90;;;4.33;;
12220;SDS011;6173;42.024;23.096;2022-07-23T11:18:56;13.83;;;3.90;;
12220;SDS011;6173;42.024;23.096;2022-07-23T11:21:40;15.77;;;3.97;;
12220;SDS011;6173;42.024;23.096;2022-07-23T11:24:17;10.27;;;4.87;;
12220;SDS011;6173;42.024;23.096;2022-07-23T11:26:53;9.53;;;3.67;;
12220;SDS011;6173;42.024;23.096;2022-07-23T11:29:42;7.97;;;3.80;;
12220;SDS011;6173;42.024;23.096;2022-07-23T11:32:19;15.53;;;4.23;;
12220;SDS011;6173;42.024;23.096;2022-07-23T11:34:58;12.47;;;4.33;;
12220;SDS011;6173;42.024;23.096;2022-07-23T11:37:31;9.67;;;3.50;;
12220;SDS011;6173;42.024;23.096;2022-07-23T11:40:01;9.97;;;3.80;;
12220;SDS011;6173;42.024;23.096;2022-07-23T11:42:29;8.77;;;3.97;;
12220;SDS011;6173;42.024;23.096;2022-07-23T11:44:58;12.70;;;4.18;;
12220;SDS011;6173;42.024;23.096;2022-07-23T11:47:25;14.77;;;4.63;;
12220;SDS011;6173;42.024;23.096;2022-07-23T11:49:53;16.37;;;4.20;;
12220;SDS011;6173;42.024;23.096;2022-07-23T11:52:21;12.50;;;4.03;;
12220;SDS011;6173;42.024;23.096;2022-07-23T11:54:49;13.83;;;4.43;;
12220;SDS011;6173;42.024;23.096;2022-07-23T11:57:18;14.50;;;4.10;;
12220;SDS011;6173;42.024;23.096;2022-07-23T11:59:46;10.37;;;3.70;;
12220;SDS011;6173;42.024;23.096;2022-07-23T12:02:16;9.73;;;3.97;;
12220;SDS011;6173;42.024;23.096;2022-07-23T12:04:44;20.33;;;4.37;;
12220;SDS011;6173;42.024;23.096;2022-07-23T12:07:22;14.10;;;4.13;;
12220;SDS011;6173;42.024;23.096;2022-07-23T12:09:56;13.20;;;3.83;;
12220;SDS011;6173;42.024;23.096;2022-07-23T12:12:24;8.70;;;4.30;;
12220;SDS011;6173;42.024;23.096;2022-07-23T12:14:52;9.93;;;3.75;;
12220;SDS011;6173;42.024;23.096;2022-07-23T12:17:21;13.00;;;4.00;;
12220;SDS011;6173;42.024;23.096;2022-07-23T12:19:54;10.95;;;3.30;;
12220;SDS011;6173;42.024;23.096;2022-07-23T12:22:22;8.05;;;3.45;;
12220;SDS011;6173;42.024;23.096;2022-07-23T12:24:53;11.48;;;3.40;;
12220;SDS011;6173;42.024;23.096;2022-07-23T12:27:23;7.00;;;3.05;;
12220;SDS011;6173;42.024;23.096;2022-07-23T12:29:51;13.88;;;3.50;;
12220;SDS011;6173;42.024;23.096;2022-07-23T12:32:18;9.40;;;3.47;;
12220;SDS011;6173;42.024;23.096;2022-07-23T12:34:49;13.05;;;3.30;;
12220;SDS011;6173;42.024;23.096;2022-07-23T12:37:30;14.10;;;3.53;;
12220;SDS011;6173;42.024;23.096;2022-07-23T12:39:58;7.45;;;2.70;;
12220;SDS011;6173;42.024;23.096;2022-07-23T12:42:25;8.77;;;3.30;;
12220;SDS011;6173;42.024;23.096;2022-07-23T12:45:05;8.77;;;2.83;;
12220;SDS011;6173;42.024;23.096;2022-07-23T12:50:36;9.43;;;3.42;;
12220;SDS011;6173;42.024;23.096;2022-07-23T12:53:12;11.18;;;3.28;;
12220;SDS011;6173;42.024;23.096;2022-07-23T12:55:42;12.70;;;3.40;;
12220;SDS011;6173;42.024;23.096;2022-07-23T12:58:13;35.40;;;4.05;;
12220;SDS011;6173;42.024;23.096;2022-07-23T13:00:52;9.82;;;3.70;;
12220;SDS011;6173;42.024;23.096;2022-07-23T13:03:21;12.40;;;4.13;;
12220;SDS011;6173;42.024;23.096;2022-07-23T13:05:50;13.75;;;3.40;;
12220;SDS011;6173;42.024;23.096;2022-07-23T13:08:18;20.00;;;3.55;;
12220;SDS011;6173;42.024;23.096;2022-07-23T13:10:44;7.78;;;3.17;;
12220;SDS011;6173;42.024;23.096;2022-07-23T13:13:14;11.95;;;3.22;;
12220;SDS011;6173;42.024;23.096;2022-07-23T13:15:41;17.00;;;3.47;;
12220;SDS011;6173;42.024;23.096;2022-07-23T13:18:08;12.93;;;3.33;;
12220;SDS011;6173;42.024;23.096;2022-07-23T13:20:35;7.82;;;2.88;;
12220;SDS011;6173;42.024;23.096;2022-07-23T13:23:05;14.27;;;3.80;;
12220;SDS011;6173;42.024;23.096;2022-07-23T13:25:32;9.80;;;3.65;;
12220;SDS011;6173;42.024;23.096;2022-07-23T13:27:59;11.05;;;3.47;;
12220;SDS011;6173;42.024;23.096;2022-07-23T13:30:26;16.45;;;3.58;;
12220;SDS011;6173;42.024;23.096;2022-07-23T13:32:53;10.35;;;3.55;;
12220;SDS011;6173;42.024;23.096;2022-07-23T13:35:19;17.33;;;3.67;;
12220;SDS011;6173;42.024;23.096;2022-07-23T13:37:46;15.55;;;3.70;;
12220;SDS011;6173;42.024;23.096;2022-07-23T13:40:14;13.85;;;3.67;;
12220;SDS011;6173;42.024;23.096;2022-07-23T13:42:41;8.27;;;3.20;;
12220;SDS011;6173;42.024;23.096;2022-07-23T13:45:08;11.68;;;3.63;;
12220;SDS011;6173;42.024;23.096;2022-07-23T13:47:35;11.88;;;3.47;;
12220;SDS011;6173;42.024;23.096;2022-07-23T13:50:02;12.98;;;3.47;;
12220;SDS011;6173;42.024;23.096;2022-07-23T13:52:29;16.23;;;3.35;;
12220;SDS011;6173;42.024;23.096;2022-07-23T13:54:58;14.03;;;3.50;;
12220;SDS011;6173;42.024;23.096;2022-07-23T13:57:26;12.98;;;3.05;;
12220;SDS011;6173;42.024;23.096;2022-07-23T13:59:53;10.73;;;3.00;;
12220;SDS011;6173;42.024;23.096;2022-07-23T14:02:19;9.82;;;3.35;;
12220;SDS011;6173;42.024;23.096;2022-07-23T14:04:46;8.15;;;2.97;;
12220;SDS011;6173;42.024;23.096;2022-07-23T14:07:14;11.02;;;2.90;;
12220;SDS011;6173;42.024;23.096;2022-07-23T14:09:41;10.48;;;3.42;;
12220;SDS011;6173;42.024;23.096;2022-07-23T14:12:08;19.40;;;3.25;;
12220;SDS011;6173;42.024;23.096;2022-07-23T14:14:36;10.38;;;3.55;;
12220;SDS011;6173;42.024;23.096;2022-07-23T14:17:03;15.68;;;3.85;;
12220;SDS011;6173;42.024;23.096;2022-07-23T14:19:30;10.63;;;3.25;;
12220;SDS011;6173;42.024;23.096;2022-07-23T14:21:57;10.05;;;3.40;;
12220;SDS011;6173;42.024;23.096;2022-07-23T14:24:24;11.93;;;3.15;;
12220;SDS011;6173;42.024;23.096;2022-07-23T14:26:51;12.25;;;3.58;;
12220;SDS011;6173;42.024;23.096;2022-07-23T14:29:18;11.45;;;3.03;;
12220;SDS011;6173;42.024;23.096;2022-07-23T14:31:46;12.88;;;3.95;;
12220;SDS011;6173;42.024;23.096;2022-07-23T14:34:13;10.27;;;3.60;;
12220;SDS011;6173;42.024;23.096;2022-07-23T14:36:40;13.02;;;3.92;;
12220;SDS011;6173;42.024;23.096;2022-07-23T14:39:07;9.75;;;3.28;;
12220;SDS011;6173;42.024;23.096;2022-07-23T14:41:34;8.65;;;3.38;;
12220;SDS011;6173;42.024;23.096;2022-07-23T14:44:01;12.73;;;3.30;;
12220;SDS011;6173;42.024;23.096;2022-07-23T14:46:29;11.45;;;4.35;;
12220;SDS011;6173;42.024;23.096;2022-07-23T14:48:57;11.63;;;3.13;;
12220;SDS011;6173;42.024;23.096;2022-07-23T14:51:24;9.90;;;3.13;;
12220;SDS011;6173;42.024;23.096;2022-07-23T14:53:50;15.77;;;3.20;;